createdAt,value
2022-11-22T05:30:56.429Z,0.00
2022-11-22T05:31:56.381Z,0.00
2022-11-22T05:32:56.353Z,0.00
2022-11-22T05:33:56.353Z,0.00
2022-11-22T05:34:56.333Z,0.00
2022-11-22T05:35:56.312Z,0.00
2022-11-22T05:36:56.335Z,0.00
2022-11-22T05:37:56.302Z,0.00
2022-11-22T05:38:56.357Z,0.00
2022-11-22T05:39:56.272Z,0.00
2022-11-22T05:40:56.301Z,0.00
2022-11-22T05:41:56.313Z,0.00
2022-11-22T05:42:56.233Z,0.00
2022-11-22T05:43:56.218Z,0.00
2022-11-22T05:44:56.200Z,0.00
2022-11-22T05:45:56.207Z,0.00
2022-11-22T05:46:56.181Z,0.00
2022-11-22T05:47:56.192Z,0.00
2022-11-22T05:48:56.194Z,0.00
2022-11-22T05:49:56.131Z,0.00
2022-11-22T05:50:56.141Z,0.00
2022-11-22T05:51:56.119Z,0.00
2022-11-22T05:52:56.132Z,0.00
2022-11-22T05:53:56.069Z,0.00
2022-11-22T05:54:56.068Z,0.00
2022-11-22T05:55:56.054Z,0.00
2022-11-22T05:56:56.072Z,0.00
2022-11-22T05:57:56.030Z,0.00
2022-11-22T05:58:56.017Z,0.00
2022-11-22T05:59:56.026Z,0.00
2022-11-22T06:00:55.985Z,0.00
2022-11-22T06:01:56.061Z,0.00
2022-11-22T06:02:55.959Z,0.00
2022-11-22T06:03:55.947Z,0.00
2022-11-22T06:04:55.932Z,0.00
2022-11-22T06:05:55.920Z,0.00
2022-11-22T06:06:55.927Z,0.00
2022-11-22T06:07:55.945Z,0.00
2022-11-22T06:08:55.876Z,0.00
2022-11-22T06:09:55.856Z,0.00
2022-11-22T06:10:55.861Z,0.00
2022-11-22T06:11:55.827Z,0.00
2022-11-22T06:12:55.840Z,0.00
2022-11-22T06:13:55.808Z,0.00
2022-11-22T06:14:55.822Z,0.00
2022-11-22T06:15:55.777Z,0.00
2022-11-22T06:16:55.789Z,0.00
2022-11-22T06:17:55.765Z,0.00
2022-11-22T06:18:55.745Z,0.00
2022-11-22T06:19:56.566Z,0.00
2022-11-22T06:20:55.724Z,0.00
2022-11-22T06:21:55.703Z,0.00
2022-11-22T06:22:55.704Z,0.00
2022-11-22T06:23:55.683Z,0.00
2022-11-22T06:24:55.664Z,0.00
2022-11-22T06:25:55.664Z,0.00
2022-11-22T06:26:55.634Z,0.00
2022-11-22T06:27:55.634Z,0.00
2022-11-22T06:28:55.614Z,0.00
2022-11-22T06:29:55.609Z,4.00
2022-11-22T06:30:55.585Z,4.00
2022-11-22T06:31:58.967Z,0.00
2022-11-22T06:32:56.563Z,4.00
2022-11-22T06:33:55.542Z,4.00
2022-11-22T06:34:55.540Z,4.00
2022-11-22T06:35:55.512Z,8.00
2022-11-22T06:36:55.514Z,8.00
2022-11-22T06:38:00.491Z,8.00
2022-11-22T06:38:56.481Z,12.00
2022-11-22T06:39:55.462Z,12.00
2022-11-22T06:40:55.462Z,12.00
2022-11-22T06:41:55.442Z,16.00
2022-11-22T06:42:55.453Z,16.00
2022-11-22T06:43:55.409Z,24.00
2022-11-22T06:44:55.398Z,24.00
2022-11-22T06:45:55.380Z,28.00
2022-11-22T06:46:55.376Z,36.00
2022-11-22T06:47:55.359Z,36.00
2022-11-22T06:48:55.361Z,44.00
2022-11-22T06:49:55.329Z,48.00
2022-11-22T06:50:55.321Z,52.00
2022-11-22T06:51:55.299Z,60.00
2022-11-22T06:52:55.291Z,64.00
2022-11-22T06:53:55.300Z,72.00
2022-11-22T06:54:55.270Z,84.00
2022-11-22T06:56:01.069Z,88.00
2022-11-22T06:56:56.289Z,100.00
2022-11-22T06:57:55.221Z,108.00
2022-11-22T06:58:55.227Z,120.00
2022-11-22T06:59:55.197Z,128.00
2022-11-22T07:00:55.224Z,140.00
2022-11-22T07:01:55.232Z,148.00
2022-11-22T07:02:55.159Z,160.00
2022-11-22T07:03:55.159Z,172.00
2022-11-22T07:05:23.290Z,184.00
2022-11-22T07:05:56.119Z,196.00
2022-11-22T07:06:55.115Z,208.00
2022-11-22T07:08:00.836Z,220.00
2022-11-22T07:08:56.093Z,232.00
2022-11-22T07:09:56.609Z,248.00
2022-11-22T07:10:55.055Z,264.00
2022-11-22T07:11:55.046Z,276.00
2022-11-22T07:12:55.026Z,288.00
2022-11-22T07:13:55.026Z,308.00
2022-11-22T07:14:55.004Z,324.00
2022-11-22T07:15:54.986Z,340.00
2022-11-22T07:16:54.985Z,356.00
2022-11-22T07:17:54.955Z,368.00
2022-11-22T07:18:54.954Z,388.00
2022-11-22T07:19:54.933Z,408.00
2022-11-22T07:20:54.923Z,428.00
2022-11-22T07:21:54.954Z,436.00
2022-11-22T07:22:54.894Z,460.00
2022-11-22T07:23:54.892Z,480.00
2022-11-22T07:24:54.863Z,496.00
2022-11-22T07:25:54.854Z,512.00
2022-11-22T07:26:54.874Z,528.00
2022-11-22T07:27:54.822Z,548.00
2022-11-22T07:28:54.843Z,564.00
2022-11-22T07:29:54.802Z,584.00
2022-11-22T07:30:54.852Z,604.00
2022-11-22T07:31:54.795Z,624.00
2022-11-22T07:32:54.771Z,660.00
2022-11-22T07:33:54.751Z,712.00
2022-11-22T07:34:54.732Z,772.00
2022-11-22T07:35:54.769Z,808.00
2022-11-22T07:36:59.728Z,832.00
2022-11-22T07:37:55.690Z,852.00
2022-11-22T07:38:54.691Z,856.00
2022-11-22T07:39:54.660Z,848.00
2022-11-22T07:40:54.660Z,856.00
2022-11-22T07:41:54.650Z,868.00
2022-11-22T07:42:58.412Z,876.00
2022-11-22T07:43:54.641Z,896.00
2022-11-22T07:44:54.610Z,916.00
2022-11-22T07:45:54.589Z,928.00
2022-11-22T07:46:54.578Z,948.00
2022-11-22T07:47:54.559Z,968.00
2022-11-22T07:48:54.564Z,984.00
2022-11-22T07:49:54.650Z,1004.00
2022-11-22T07:50:54.527Z,1024.00
2022-11-22T07:51:54.546Z,1052.00
2022-11-22T07:52:54.498Z,1112.00
2022-11-22T07:53:54.477Z,1152.00
2022-11-22T07:54:54.527Z,1168.00
2022-11-22T07:55:54.498Z,1192.00
2022-11-22T07:56:54.457Z,1204.00
2022-11-22T07:57:54.429Z,1236.00
2022-11-22T07:58:54.477Z,1304.00
2022-11-22T07:59:54.490Z,1404.00
2022-11-22T08:00:54.387Z,1324.00
2022-11-22T08:01:54.421Z,1300.00
2022-11-22T08:02:54.367Z,1328.00
2022-11-22T08:03:54.445Z,1344.00
2022-11-22T08:04:54.409Z,1292.00
2022-11-22T08:05:54.376Z,1316.00
2022-11-22T08:06:54.307Z,1360.00
2022-11-22T08:07:54.403Z,1428.00
2022-11-22T08:09:00.333Z,1484.00
2022-11-22T08:09:55.306Z,1548.00
2022-11-22T08:10:54.257Z,1572.00
2022-11-22T08:11:54.236Z,1648.00
2022-11-22T08:12:54.270Z,1736.00
2022-11-22T08:13:54.258Z,1764.00
2022-11-22T08:14:54.215Z,1680.00
2022-11-22T08:15:54.822Z,1760.00
2022-11-22T08:16:54.173Z,1840.00
2022-11-22T08:17:54.154Z,2208.00
2022-11-22T08:18:54.146Z,2564.00
2022-11-22T08:19:54.143Z,2452.00
2022-11-22T08:20:54.123Z,2316.00
2022-11-22T08:21:58.455Z,2164.00
2022-11-22T08:22:54.094Z,2084.00
2022-11-22T08:23:54.082Z,1976.00
2022-11-22T08:24:54.073Z,1984.00
2022-11-22T08:25:54.061Z,2032.00
2022-11-22T08:26:54.041Z,1952.00
2022-11-22T08:27:54.032Z,2192.00
2022-11-22T08:28:54.012Z,2540.00
2022-11-22T08:29:54.022Z,2760.00
2022-11-22T08:30:53.996Z,3144.00
2022-11-22T08:31:53.971Z,3428.00
2022-11-22T08:32:53.972Z,2824.00
2022-11-22T08:33:54.092Z,3004.00
2022-11-22T08:34:53.961Z,3112.00
2022-11-22T08:35:53.921Z,3252.00
2022-11-22T08:36:53.930Z,3416.00
2022-11-22T08:37:53.889Z,3628.00
2022-11-22T08:38:53.889Z,4024.00
2022-11-22T08:39:53.878Z,4664.00
2022-11-22T08:40:53.863Z,3828.00
2022-11-22T08:41:53.850Z,3972.00
2022-11-22T08:42:53.831Z,4480.00
2022-11-22T08:43:53.808Z,4908.00
2022-11-22T08:44:53.822Z,6256.00
2022-11-22T08:45:53.789Z,6428.00
2022-11-22T08:46:53.796Z,7172.00
2022-11-22T08:47:53.758Z,7196.00
2022-11-22T08:48:53.772Z,7572.00
2022-11-22T08:49:53.768Z,7580.00
2022-11-22T08:50:53.740Z,7200.00
2022-11-22T08:51:53.714Z,7952.00
2022-11-22T08:52:53.698Z,8200.00
2022-11-22T08:53:53.686Z,8020.00
2022-11-22T08:54:53.677Z,7624.00
2022-11-22T08:55:53.677Z,8636.00
2022-11-22T08:56:53.666Z,8748.00
2022-11-22T08:57:53.636Z,8924.00
2022-11-22T08:58:53.627Z,9100.00
2022-11-22T08:59:53.606Z,9292.00
2022-11-22T09:00:53.608Z,9520.00
2022-11-22T09:01:53.615Z,9732.00
2022-11-22T09:02:53.571Z,9916.00
2022-11-22T09:03:53.546Z,10184.00
2022-11-22T09:04:53.547Z,10584.00
2022-11-22T09:09:08.804Z,28384.00
2022-11-22T09:09:54.476Z,28640.00
2022-11-22T09:10:53.475Z,30304.00
2022-11-22T09:11:53.455Z,31872.00
2022-11-22T09:12:53.435Z,32384.00
2022-11-22T09:13:53.425Z,31840.00
2022-11-22T09:14:53.415Z,31680.00
2022-11-22T09:15:53.405Z,31744.00
2022-11-22T09:16:53.384Z,31520.00
2022-11-22T09:17:53.376Z,33920.00
2022-11-22T09:18:53.367Z,36224.00
2022-11-22T09:19:53.344Z,36832.00
2022-11-22T09:20:53.345Z,36000.00
2022-11-22T09:21:53.315Z,33856.00
2022-11-22T09:22:53.305Z,32096.00
2022-11-22T09:23:53.284Z,32224.00
2022-11-22T09:24:53.275Z,32864.00
2022-11-22T09:25:53.277Z,32896.00
2022-11-22T09:26:53.274Z,34080.00
2022-11-22T09:27:53.237Z,35840.00
2022-11-22T09:28:53.235Z,36576.00
2022-11-22T09:29:53.223Z,36896.00
2022-11-22T09:30:53.214Z,38432.00
2022-11-22T09:31:53.185Z,39744.00
2022-11-22T09:32:53.185Z,40512.00
2022-11-22T09:33:53.154Z,40800.00
2022-11-22T09:34:53.152Z,40000.00
2022-11-22T09:35:53.143Z,40032.00
2022-11-22T09:36:53.119Z,39136.00
2022-11-22T09:37:53.103Z,38656.00
2022-11-22T09:38:53.093Z,39200.00
2022-11-22T09:39:53.075Z,39872.00
2022-11-22T09:40:53.086Z,41408.00
2022-11-22T09:41:53.056Z,42752.00
2022-11-22T09:42:53.043Z,43680.00
2022-11-22T09:43:53.279Z,44352.00
2022-11-22T09:44:53.016Z,43296.00
2022-11-22T09:45:53.013Z,44032.00
2022-11-22T09:46:52.991Z,44032.00
2022-11-22T09:47:52.975Z,44000.00
2022-11-22T09:48:52.964Z,44256.00
2022-11-22T09:49:52.945Z,44416.00
2022-11-22T09:50:52.945Z,44576.00
2022-11-22T09:51:52.924Z,44064.00
2022-11-22T09:52:52.913Z,44288.00
2022-11-22T09:53:52.947Z,44832.00
2022-11-22T09:54:52.883Z,44608.00
2022-11-22T09:55:52.874Z,44640.00
2022-11-22T09:56:52.853Z,44736.00
2022-11-22T09:57:52.843Z,45568.00
2022-11-22T09:58:52.835Z,47360.00
2022-11-22T09:59:52.813Z,48608.00
2022-11-22T10:00:52.887Z,49984.00
2022-11-22T10:01:52.784Z,50688.00
2022-11-22T10:03:00.839Z,50816.00
2022-11-22T10:03:53.754Z,50528.00
2022-11-22T10:04:52.762Z,50720.00
2022-11-22T10:05:52.734Z,51776.00
2022-11-22T10:06:52.728Z,52864.00
2022-11-22T10:07:52.747Z,48800.00
2022-11-22T10:08:52.695Z,43040.00
2022-11-22T10:09:52.674Z,41344.00
2022-11-22T10:10:52.663Z,42336.00
2022-11-22T10:11:52.663Z,42976.00
2022-11-22T10:12:52.645Z,43840.00
2022-11-22T10:13:53.574Z,43744.00
2022-11-22T10:14:52.613Z,43872.00
2022-11-22T10:15:52.614Z,45056.00
2022-11-22T10:16:52.596Z,45632.00
2022-11-22T10:17:52.573Z,45632.00
2022-11-22T10:18:52.555Z,46496.00
2022-11-22T10:19:52.544Z,48448.00
2022-11-22T10:20:52.534Z,50560.00
2022-11-22T10:21:52.533Z,54048.00
2022-11-22T10:22:52.505Z,57088.00
2022-11-22T10:23:52.495Z,58496.00
2022-11-22T10:24:52.482Z,57984.00
2022-11-22T10:25:52.463Z,56800.00
2022-11-22T10:26:52.474Z,56736.00
2022-11-22T10:27:56.267Z,57888.00
2022-11-22T10:28:53.424Z,59168.00
2022-11-22T10:29:52.418Z,60256.00
2022-11-22T10:30:52.404Z,56640.00
2022-11-22T10:31:52.398Z,44544.00
2022-11-22T10:32:52.374Z,54368.00
2022-11-22T10:33:52.355Z,59712.00
2022-11-22T10:34:52.345Z,55904.00
2022-11-22T10:35:52.332Z,54592.00
2022-11-22T10:36:52.334Z,56800.00
2022-11-22T10:37:52.304Z,59680.00
2022-11-22T10:38:52.297Z,38688.00
2022-11-22T10:39:52.284Z,10864.00
2022-11-22T10:40:52.275Z,13184.00
2022-11-22T10:41:52.255Z,14180.00
2022-11-22T10:42:52.247Z,29056.00
2022-11-22T10:43:52.225Z,19392.00
2022-11-22T10:44:52.214Z,15808.00
2022-11-22T10:45:52.204Z,18944.00
2022-11-22T10:46:56.533Z,55264.00
2022-11-22T10:47:52.181Z,27424.00
2022-11-22T10:48:52.164Z,57536.00
2022-11-22T10:49:52.144Z,47712.00
2022-11-22T10:50:52.135Z,31040.00
2022-11-22T10:51:52.133Z,65280.00
2022-11-22T10:52:52.113Z,66976.00
2022-11-22T10:53:52.094Z,69472.00
2022-11-22T10:54:52.084Z,68416.00
2022-11-22T10:55:52.065Z,68960.00
2022-11-22T10:56:52.066Z,68736.00
2022-11-22T10:57:52.043Z,70048.00
2022-11-22T10:58:52.034Z,69728.00
2022-11-22T10:59:52.015Z,67072.00
2022-11-22T11:00:52.017Z,64928.00
2022-11-22T11:01:51.997Z,12484.00
2022-11-22T11:02:51.976Z,10060.00
2022-11-22T11:03:51.962Z,35392.00
2022-11-22T11:04:51.954Z,13836.00
2022-11-22T11:07:56.730Z,8192.00
2022-11-22T11:09:47.878Z,6752.00
2022-11-22T11:10:10.865Z,7672.00
2022-11-22T11:10:52.874Z,4232.00
2022-11-22T11:11:51.901Z,6004.00
2022-11-22T11:12:51.854Z,13452.00
2022-11-22T11:13:51.824Z,6204.00
2022-11-22T11:14:51.814Z,6600.00
2022-11-22T11:15:55.949Z,5340.00
2022-11-22T11:16:51.805Z,4924.00
2022-11-22T11:17:51.772Z,4940.00
2022-11-22T11:18:51.764Z,4436.00
2022-11-22T11:19:51.743Z,3916.00
2022-11-22T11:20:51.734Z,4348.00
2022-11-22T11:21:51.724Z,4128.00
2022-11-22T11:23:13.574Z,3788.00
2022-11-22T11:23:52.712Z,3548.00
2022-11-22T11:24:51.683Z,4248.00
2022-11-22T11:25:51.665Z,4444.00
2022-11-22T11:26:51.664Z,5624.00
2022-11-22T11:27:51.643Z,8268.00
2022-11-22T11:28:51.633Z,76768.00
2022-11-22T11:29:51.614Z,5876.00
2022-11-22T11:30:51.651Z,4336.00
2022-11-22T11:31:51.605Z,3708.00
2022-11-22T11:32:51.573Z,3248.00
2022-11-22T11:33:51.573Z,3084.00
2022-11-22T11:34:51.543Z,3168.00
2022-11-22T11:35:51.542Z,3544.00
2022-11-22T11:36:51.530Z,4464.00
2022-11-22T11:37:51.512Z,5156.00
2022-11-22T11:38:51.493Z,5704.00
2022-11-22T11:39:51.535Z,6596.00
2022-11-22T11:40:51.466Z,6636.00
2022-11-22T11:41:51.487Z,6596.00
2022-11-22T11:42:51.453Z,5904.00
2022-11-22T11:43:51.440Z,4220.00
2022-11-22T11:44:51.411Z,3624.00
2022-11-22T11:45:51.404Z,3176.00
2022-11-22T11:46:51.382Z,3512.00
2022-11-22T11:47:51.393Z,5160.00
2022-11-22T11:48:51.386Z,6900.00
2022-11-22T11:49:51.351Z,7736.00
2022-11-22T11:50:51.331Z,7400.00
2022-11-22T11:51:51.331Z,6676.00
2022-11-22T11:52:51.320Z,6812.00
2022-11-22T11:53:51.303Z,6332.00
2022-11-22T11:54:51.280Z,6644.00
2022-11-22T11:55:51.272Z,6568.00
2022-11-22T11:56:51.269Z,5796.00
2022-11-22T11:57:51.260Z,5140.00
2022-11-22T11:58:51.230Z,4452.00
2022-11-22T11:59:51.220Z,4392.00
2022-11-22T12:00:51.215Z,4448.00
2022-11-22T12:01:51.290Z,4520.00
2022-11-22T12:02:51.272Z,4592.00
2022-11-22T12:03:51.169Z,5152.00
2022-11-22T12:04:51.158Z,4388.00
2022-11-22T12:05:51.149Z,3368.00
2022-11-22T12:06:51.130Z,2916.00
2022-11-22T12:07:51.195Z,2860.00
2022-11-22T12:08:51.101Z,2760.00
2022-11-22T12:09:51.098Z,2948.00
2022-11-22T12:10:51.079Z,2860.00
2022-11-22T12:11:51.079Z,3020.00
2022-11-22T12:12:51.059Z,3028.00
2022-11-22T12:14:18.937Z,3036.00
2022-11-22T12:15:10.262Z,2740.00
2022-11-22T12:15:52.019Z,2640.00
2022-11-22T12:16:50.998Z,2624.00
2022-11-22T12:17:51.009Z,2604.00
2022-11-22T12:18:50.985Z,2688.00
2022-11-22T12:19:50.971Z,2536.00
2022-11-22T12:20:51.055Z,2312.00
2022-11-22T12:21:50.948Z,2244.00
2022-11-22T12:22:51.044Z,2124.00
2022-11-22T12:23:51.301Z,2004.00
2022-11-22T12:25:09.777Z,1888.00
2022-11-22T12:25:51.884Z,1832.00
2022-11-22T12:26:50.880Z,1920.00
2022-11-22T12:27:50.907Z,1960.00
2022-11-22T12:28:50.846Z,1972.00
2022-11-22T12:29:50.838Z,2184.00
2022-11-22T12:30:50.815Z,2404.00
2022-11-22T12:31:50.812Z,2824.00
2022-11-22T12:32:50.805Z,3176.00
2022-11-22T12:33:50.776Z,3528.00
2022-11-22T12:34:50.768Z,3612.00
2022-11-22T12:35:50.766Z,3248.00
2022-11-22T12:36:50.734Z,2124.00
2022-11-22T12:37:50.736Z,1604.00
2022-11-22T12:38:50.705Z,1512.00
2022-11-22T12:39:50.696Z,1304.00
2022-11-22T12:40:50.689Z,1180.00
2022-11-22T12:41:50.663Z,1012.00
2022-11-22T12:42:50.668Z,772.00
2022-11-22T12:43:50.634Z,644.00
2022-11-22T12:44:50.635Z,600.00
2022-11-22T12:45:50.615Z,564.00
2022-11-22T12:46:50.604Z,584.00
2022-11-22T12:47:50.594Z,588.00
2022-11-22T12:48:50.583Z,560.00
2022-11-22T12:49:50.564Z,576.00
2022-11-22T12:50:50.616Z,676.00
2022-11-22T12:51:50.541Z,812.00
2022-11-22T12:52:50.534Z,968.00
2022-11-22T12:53:50.504Z,1128.00
2022-11-22T12:54:50.500Z,1212.00
2022-11-22T12:55:50.483Z,1288.00
2022-11-22T12:56:50.475Z,1388.00
2022-11-22T12:57:50.465Z,1488.00
2022-11-22T12:58:50.443Z,1608.00
2022-11-22T12:59:50.433Z,1560.00
2022-11-22T13:00:50.490Z,1500.00
2022-11-22T13:01:50.455Z,1440.00
2022-11-22T13:02:54.536Z,1388.00
2022-11-22T13:03:51.382Z,1264.00
2022-11-22T13:04:50.377Z,1168.00
2022-11-22T13:05:50.351Z,1180.00
2022-11-22T13:06:50.342Z,1080.00
2022-11-22T13:07:50.392Z,976.00
2022-11-22T13:08:54.654Z,968.00
2022-11-22T13:09:51.308Z,896.00
2022-11-22T13:10:50.291Z,904.00
2022-11-22T13:11:50.273Z,956.00
2022-11-22T13:12:50.383Z,976.00
2022-11-22T13:13:50.261Z,996.00
2022-11-22T13:14:50.236Z,1028.00
2022-11-22T13:15:50.218Z,988.00
2022-11-22T13:16:50.240Z,904.00
2022-11-22T13:17:50.190Z,884.00
2022-11-22T13:18:50.191Z,888.00
2022-11-22T13:19:50.170Z,924.00
2022-11-22T13:20:50.173Z,880.00
2022-11-22T13:21:50.138Z,868.00
2022-11-22T13:22:50.128Z,940.00
2022-11-22T13:23:50.120Z,928.00
2022-11-22T13:24:50.100Z,952.00
2022-11-22T13:25:50.082Z,1000.00
2022-11-22T13:26:50.069Z,1028.00
2022-11-22T13:27:50.058Z,1080.00
2022-11-22T13:28:50.067Z,1060.00
2022-11-22T13:29:50.028Z,964.00
2022-11-22T13:30:50.019Z,940.00
2022-11-22T13:31:50.009Z,916.00
2022-11-22T13:32:50.001Z,868.00
2022-11-22T13:33:49.988Z,876.00
2022-11-22T13:34:49.968Z,896.00
2022-11-22T13:35:49.949Z,936.00
2022-11-22T13:36:49.946Z,1016.00
2022-11-22T13:37:49.928Z,1036.00
2022-11-22T13:38:49.929Z,1128.00
2022-11-22T13:39:49.922Z,1236.00
2022-11-22T13:40:49.887Z,1264.00
2022-11-22T13:41:49.877Z,1288.00
2022-11-22T13:42:49.857Z,1420.00
2022-11-22T13:43:49.859Z,1564.00
2022-11-22T13:44:49.837Z,1716.00
2022-11-22T13:45:49.819Z,1864.00
2022-11-22T13:46:49.832Z,1844.00
2022-11-22T13:47:49.787Z,1744.00
2022-11-22T13:48:49.797Z,1696.00
2022-11-22T13:49:49.767Z,1584.00
2022-11-22T13:50:49.756Z,1448.00
2022-11-22T13:51:49.738Z,1240.00
2022-11-22T13:52:49.726Z,1124.00
2022-11-22T13:53:49.726Z,1124.00
2022-11-22T13:54:49.736Z,1116.00
2022-11-22T13:55:49.683Z,1148.00
2022-11-22T13:56:49.675Z,1204.00
2022-11-22T13:57:49.674Z,1296.00
2022-11-22T13:58:51.333Z,1340.00
2022-11-22T13:59:49.634Z,1268.00
2022-11-22T14:00:49.693Z,1100.00
2022-11-22T14:01:49.606Z,940.00
2022-11-22T14:02:49.606Z,908.00
2022-11-22T14:03:49.594Z,904.00
2022-11-22T14:04:49.573Z,844.00
2022-11-22T14:05:49.553Z,876.00
2022-11-22T14:06:49.552Z,772.00
2022-11-22T14:07:49.589Z,644.00
2022-11-22T14:08:49.543Z,636.00
2022-11-22T14:09:49.505Z,632.00
2022-11-22T14:10:49.504Z,576.00
2022-11-22T14:11:49.474Z,548.00
2022-11-22T14:12:49.463Z,604.00
2022-11-22T14:13:49.443Z,660.00
2022-11-22T14:14:49.462Z,664.00
2022-11-22T14:15:49.423Z,648.00
2022-11-22T14:16:49.415Z,636.00
2022-11-22T14:17:49.392Z,576.00
2022-11-22T14:18:49.390Z,520.00
2022-11-22T14:19:49.383Z,516.00
2022-11-22T14:20:49.361Z,556.00
2022-11-22T14:21:49.340Z,544.00
2022-11-22T14:22:49.331Z,508.00
2022-11-22T14:23:49.321Z,488.00
2022-11-22T14:24:49.320Z,496.00
2022-11-22T14:25:49.289Z,476.00
2022-11-22T14:26:49.294Z,492.00
2022-11-22T14:27:49.267Z,492.00
2022-11-22T14:28:49.255Z,516.00
2022-11-22T14:29:53.476Z,552.00
2022-11-22T14:30:49.220Z,560.00
2022-11-22T14:31:49.221Z,528.00
2022-11-22T14:32:49.190Z,468.00
2022-11-22T14:33:49.181Z,404.00
2022-11-22T14:34:49.183Z,396.00
2022-11-22T14:35:49.160Z,440.00
2022-11-22T14:36:49.146Z,432.00
2022-11-22T14:37:49.134Z,416.00
2022-11-22T14:38:49.109Z,412.00
2022-11-22T14:39:49.110Z,376.00
2022-11-22T14:40:49.090Z,348.00
2022-11-22T14:41:49.082Z,360.00
2022-11-22T14:42:49.101Z,388.00
2022-11-22T14:43:49.059Z,380.00
2022-11-22T14:44:49.049Z,364.00
2022-11-22T14:45:49.028Z,376.00
2022-11-22T14:46:53.621Z,400.00
2022-11-22T14:47:49.998Z,424.00
2022-11-22T14:48:48.979Z,452.00
2022-11-22T14:49:48.987Z,464.00
2022-11-22T14:50:48.957Z,416.00
2022-11-22T14:51:48.949Z,340.00
2022-11-22T14:52:48.927Z,288.00
2022-11-22T14:53:48.928Z,268.00
2022-11-22T14:54:48.919Z,248.00
2022-11-22T14:55:48.899Z,228.00
2022-11-22T14:56:48.878Z,216.00
2022-11-22T14:57:48.867Z,220.00
2022-11-22T14:58:48.896Z,220.00
2022-11-22T14:59:48.854Z,204.00
2022-11-22T15:00:48.816Z,208.00
2022-11-22T15:01:48.868Z,208.00
2022-11-22T15:02:48.797Z,200.00
2022-11-22T15:03:48.796Z,204.00
2022-11-22T15:09:10.833Z,196.00
2022-11-22T15:09:12.366Z,200.00
2022-11-22T15:09:16.585Z,200.00
2022-11-22T15:09:17.858Z,228.00
2022-11-22T15:09:21.749Z,196.00
2022-11-22T15:09:53.542Z,276.00
2022-11-22T15:10:48.756Z,388.00
2022-11-22T15:11:48.683Z,448.00
2022-11-22T15:12:48.666Z,416.00
2022-11-22T15:13:48.655Z,372.00
2022-11-22T15:14:48.656Z,404.00
2022-11-22T15:57:49.078Z,4.00
2022-11-22T15:58:48.048Z,4.00
2022-11-22T15:59:48.040Z,4.00
2022-11-22T16:00:48.053Z,4.00
2022-11-22T16:01:48.109Z,4.00
2022-11-22T16:02:48.008Z,4.00
2022-11-22T16:03:47.987Z,4.00
2022-11-22T16:04:47.985Z,0.00
2022-11-22T16:06:10.197Z,4.00
2022-11-22T16:06:48.959Z,0.00
2022-11-22T16:07:48.021Z,0.00
2022-11-22T16:08:47.937Z,0.00
2022-11-22T16:09:47.930Z,0.00
2022-11-22T16:10:47.907Z,0.00
2022-11-22T16:11:47.916Z,0.00
2022-11-22T16:12:47.876Z,0.00
2022-11-22T16:13:47.895Z,0.00
2022-11-22T16:14:47.853Z,0.00
2022-11-22T16:15:47.853Z,0.00
2022-11-22T16:16:47.817Z,0.00
2022-11-22T16:17:47.837Z,0.00
2022-11-22T16:18:47.785Z,0.00
2022-11-22T16:19:47.784Z,0.00
2022-11-22T16:20:47.774Z,0.00
2022-11-22T16:21:47.755Z,0.00
2022-11-22T16:22:47.752Z,0.00
2022-11-22T16:23:47.724Z,0.00
2022-11-22T16:24:47.717Z,0.00
2022-11-22T16:25:47.734Z,0.00
2022-11-22T16:26:47.684Z,0.00
2022-11-22T16:27:47.680Z,0.00
2022-11-22T16:28:47.665Z,0.00
2022-11-22T16:29:47.655Z,0.00
2022-11-22T16:30:47.909Z,0.00
2022-11-22T16:31:47.625Z,0.00
2022-11-22T16:32:47.613Z,0.00
2022-11-22T16:33:47.692Z,0.00
2022-11-22T16:34:51.631Z,0.00
2022-11-22T16:35:48.582Z,0.00
2022-11-22T16:36:47.552Z,0.00
2022-11-22T16:37:48.331Z,0.00
2022-11-22T16:38:47.534Z,0.00
2022-11-22T16:39:47.522Z,0.00
2022-11-22T16:40:47.501Z,0.00
2022-11-22T16:41:47.501Z,0.00
2022-11-22T16:42:47.477Z,0.00
2022-11-22T16:43:47.461Z,0.00
2022-11-22T16:44:47.450Z,0.00
2022-11-22T16:45:47.501Z,0.00
2022-11-22T16:46:47.511Z,0.00
2022-11-22T16:47:58.283Z,0.00
2022-11-22T16:48:48.390Z,0.00
2022-11-22T16:49:47.388Z,0.00
2022-11-22T16:50:47.380Z,0.00
2022-11-22T16:51:47.396Z,0.00
2022-11-22T16:52:47.349Z,0.00
2022-11-22T16:53:47.329Z,0.00
2022-11-22T16:54:47.318Z,0.00
2022-11-22T16:55:47.311Z,0.00
2022-11-22T16:56:47.318Z,0.00
2022-11-22T16:57:47.270Z,0.00
2022-11-22T16:58:47.271Z,0.00
2022-11-22T16:59:47.268Z,0.00
2022-11-22T17:00:47.272Z,0.00
2022-11-22T17:01:47.228Z,0.00
2022-11-22T17:02:47.217Z,0.00
2022-11-22T17:03:47.202Z,0.00
2022-11-22T17:04:47.187Z,0.00
2022-11-22T17:05:47.170Z,0.00
2022-11-22T17:06:47.181Z,0.00
2022-11-22T17:07:47.226Z,0.00
2022-11-22T17:08:47.138Z,0.00
2022-11-22T17:09:47.126Z,0.00
2022-11-22T17:10:47.107Z,0.00
2022-11-22T17:11:47.113Z,0.00
2022-11-22T17:12:47.078Z,0.00
2022-11-22T17:13:47.066Z,0.00
2022-11-22T17:14:47.057Z,0.00
2022-11-22T17:15:47.046Z,0.00
2022-11-22T17:16:47.039Z,0.00
2022-11-22T17:17:47.015Z,0.00
2022-11-22T17:18:47.005Z,0.00
2022-11-22T17:19:53.132Z,0.00
2022-11-22T17:20:48.010Z,0.00
2022-11-22T17:21:46.985Z,0.00
2022-11-22T17:22:46.955Z,0.00
2022-11-22T17:23:46.926Z,0.00
2022-11-22T17:24:47.015Z,0.00
2022-11-22T17:25:46.909Z,0.00
2022-11-22T17:26:46.905Z,0.00
2022-11-22T17:27:51.511Z,0.00
2022-11-22T17:28:47.864Z,0.00
2022-11-22T17:29:50.982Z,0.00
2022-11-22T17:30:46.853Z,0.00
2022-11-22T17:31:46.845Z,0.00
2022-11-22T17:32:46.815Z,0.00
2022-11-22T17:33:46.815Z,0.00
2022-11-22T17:34:46.962Z,0.00
2022-11-22T17:35:46.772Z,0.00
2022-11-22T17:36:46.774Z,0.00
2022-11-22T17:37:46.751Z,0.00
2022-11-22T17:38:46.731Z,0.00
2022-11-22T17:39:46.738Z,0.00
2022-11-22T17:40:46.711Z,0.00
2022-11-22T17:41:46.714Z,0.00
2022-11-22T17:42:46.691Z,0.00
2022-11-22T17:43:46.680Z,0.00
2022-11-22T17:44:46.660Z,0.00
2022-11-22T17:45:46.651Z,0.00
2022-11-22T17:46:46.641Z,0.00
2022-11-22T17:47:46.611Z,0.00
2022-11-22T17:48:46.601Z,0.00
2022-11-22T17:49:53.793Z,0.00
2022-11-22T17:50:46.586Z,0.00
2022-11-22T17:51:46.571Z,0.00
2022-11-22T17:52:46.568Z,0.00
2022-11-22T17:53:46.550Z,0.00
2022-11-22T17:54:46.527Z,0.00
2022-11-22T17:56:09.419Z,0.00
2022-11-22T17:56:47.504Z,0.00
2022-11-22T17:57:47.838Z,0.00
2022-11-22T17:58:46.482Z,0.00
2022-11-22T17:59:46.473Z,0.00
2022-11-22T18:00:46.455Z,0.00
2022-11-22T18:01:46.442Z,0.00
2022-11-22T18:02:46.520Z,0.00
2022-11-22T18:03:46.486Z,0.00
2022-11-22T18:04:46.393Z,0.00
2022-11-22T18:05:46.392Z,0.00
2022-11-22T18:06:46.374Z,0.00
2022-11-22T18:07:46.411Z,0.00
2022-11-22T18:08:47.372Z,0.00
2022-11-22T18:09:46.362Z,0.00
2022-11-22T18:10:46.420Z,0.00
2022-11-22T18:11:46.441Z,0.00
2022-11-22T18:13:13.421Z,0.00
2022-11-22T18:13:47.287Z,0.00
2022-11-22T18:14:46.270Z,0.00
2022-11-22T18:15:46.260Z,0.00
2022-11-22T18:16:46.319Z,0.00
2022-11-22T18:17:46.251Z,0.00
2022-11-22T18:18:56.670Z,0.00
2022-11-22T18:19:47.189Z,0.00
2022-11-22T18:20:46.177Z,0.00
2022-11-22T18:21:46.170Z,0.00
2022-11-22T18:22:46.160Z,0.00
2022-11-22T18:23:46.149Z,0.00
2022-11-22T18:24:46.138Z,0.00
2022-11-22T18:25:46.117Z,0.00
2022-11-22T18:26:46.130Z,0.00
2022-11-22T18:27:46.112Z,0.00
2022-11-22T18:29:02.429Z,0.00
2022-11-22T18:29:47.069Z,0.00
2022-11-22T18:30:46.059Z,0.00
2022-11-22T18:31:53.784Z,0.00
2022-11-22T18:32:47.038Z,4.00
2022-11-22T18:33:46.009Z,4.00
2022-11-22T18:34:45.998Z,0.00
2022-11-22T18:35:56.188Z,0.00
2022-11-22T18:36:55.316Z,0.00
2022-11-22T18:37:46.977Z,0.00
2022-11-22T18:38:45.941Z,0.00
2022-11-22T18:39:45.937Z,0.00
2022-11-22T18:40:45.928Z,0.00
2022-11-22T18:41:45.918Z,0.00
2022-11-22T18:42:45.887Z,0.00
2022-11-22T18:43:45.887Z,0.00
2022-11-22T18:44:45.875Z,0.00
2022-11-22T18:45:45.875Z,0.00
2022-11-22T18:46:45.863Z,0.00